createdAt,value
2019-02-11T00:00:13.768Z,74.20
2019-02-11T00:02:42.292Z,43.23
2019-02-11T00:05:10.798Z,65.50
2019-02-11T00:07:39.377Z,51.23
2019-02-11T00:10:07.841Z,84.03
2019-02-11T00:12:36.294Z,80.45
2019-02-11T00:15:05.801Z,79.35
2019-02-11T00:17:34.389Z,61.63
2019-02-11T00:20:02.861Z,70.78
2019-02-11T00:22:31.284Z,68.00
2019-02-11T00:24:59.798Z,79.22
2019-02-11T00:27:28.307Z,70.85
2019-02-11T00:29:56.800Z,65.15
2019-02-11T00:32:25.389Z,58.87
2019-02-11T00:34:53.833Z,70.03
2019-02-11T00:37:22.279Z,75.65
2019-02-11T00:39:50.863Z,58.90
2019-02-11T00:42:19.382Z,75.70
2019-02-11T00:44:47.876Z,61.10
2019-02-11T00:47:16.408Z,79.25
2019-02-11T00:49:44.888Z,73.75
2019-02-11T00:52:13.446Z,78.72
2019-02-11T00:54:41.979Z,67.10
2019-02-11T00:57:10.473Z,82.22
2019-02-11T00:59:38.910Z,72.35
2019-02-11T01:02:07.491Z,69.58
2019-02-11T01:04:35.993Z,72.35
2019-02-11T01:07:04.501Z,80.42
2019-02-11T01:09:33.095Z,56.88
2019-02-11T01:12:01.513Z,61.90
2019-02-11T01:14:30.011Z,57.90
2019-02-11T01:16:58.521Z,44.67
2019-02-11T01:19:27.982Z,73.62
2019-02-11T01:21:56.548Z,58.65
2019-02-11T01:24:25.056Z,68.55
2019-02-11T01:26:53.546Z,64.47
2019-02-11T01:29:21.984Z,62.70
2019-02-11T01:31:50.538Z,65.03
2019-02-11T01:34:18.983Z,69.03
2019-02-11T01:36:47.491Z,80.00
2019-02-11T01:39:16.039Z,65.50
2019-02-11T01:41:44.458Z,71.07
2019-02-11T01:44:12.990Z,76.25
2019-02-11T01:46:41.592Z,71.70
2019-02-11T01:49:10.102Z,75.80
2019-02-11T01:51:38.594Z,79.53
2019-02-11T01:54:08.101Z,81.32
2019-02-11T01:56:38.243Z,76.17
2019-02-11T01:59:07.898Z,76.25
2019-02-11T02:01:36.482Z,70.87
2019-02-11T02:04:04.925Z,80.17
2019-02-11T02:06:33.445Z,62.30
2019-02-11T02:09:01.997Z,71.02
2019-02-11T02:11:30.570Z,80.85
2019-02-11T02:13:59.068Z,73.60
2019-02-11T02:16:27.733Z,69.72
2019-02-11T02:18:56.220Z,69.87
2019-02-11T02:21:24.715Z,88.30
2019-02-11T02:23:53.294Z,93.10
2019-02-11T02:26:21.804Z,84.62
2019-02-11T02:28:50.229Z,92.42
2019-02-11T02:31:18.717Z,62.13
2019-02-11T02:33:47.232Z,65.20
2019-02-11T02:36:15.664Z,54.27
2019-02-11T02:38:44.194Z,93.82
2019-02-11T02:41:12.670Z,63.05
2019-02-11T02:43:41.177Z,82.88
2019-02-11T02:46:09.668Z,73.62
2019-02-11T02:48:38.165Z,68.67
2019-02-11T02:51:18.780Z,69.53
2019-02-11T02:53:47.283Z,58.05
2019-02-11T02:56:15.861Z,48.83
2019-02-11T02:58:44.458Z,45.55
2019-02-11T03:01:12.946Z,73.52
2019-02-11T03:03:41.642Z,52.50
2019-02-11T03:06:10.135Z,52.62
2019-02-11T03:08:50.690Z,50.67
2019-02-11T03:11:19.287Z,55.88
2019-02-11T03:13:47.735Z,61.08
2019-02-11T03:16:16.340Z,62.38
2019-02-11T03:19:04.368Z,51.37
2019-02-11T03:21:32.883Z,56.02
2019-02-11T03:24:01.393Z,63.68
2019-02-11T03:26:29.875Z,69.55
2019-02-11T03:28:58.463Z,44.27
2019-02-11T03:31:27.050Z,69.20
2019-02-11T03:33:55.591Z,63.17
2019-02-11T03:36:24.114Z,49.90
2019-02-11T03:38:52.616Z,55.83
2019-02-11T03:41:21.057Z,65.12
2019-02-11T03:43:49.635Z,60.20
2019-02-11T03:46:18.085Z,49.90
2019-02-11T03:48:46.509Z,63.73
2019-02-11T03:51:15.074Z,48.65
2019-02-11T03:53:44.688Z,55.88
2019-02-11T03:56:13.159Z,52.65
2019-02-11T03:58:41.676Z,49.93
2019-02-11T04:01:10.269Z,43.45
2019-02-11T04:03:38.703Z,43.23
2019-02-11T04:06:07.142Z,37.23
2019-02-11T04:08:35.573Z,26.73
2019-02-11T04:11:04.118Z,37.13
2019-02-11T04:13:32.618Z,39.95
2019-02-11T04:16:01.039Z,40.12
2019-02-11T04:18:29.599Z,37.10
2019-02-11T04:20:58.101Z,40.10
2019-02-11T04:23:26.653Z,38.13
2019-02-11T04:25:55.200Z,36.38
2019-02-11T04:28:23.700Z,35.68
2019-02-11T04:30:52.274Z,42.08
2019-02-11T04:33:20.787Z,31.87
2019-02-11T04:35:49.534Z,37.70
2019-02-11T04:38:18.086Z,41.25
2019-02-11T04:40:47.656Z,34.23
2019-02-11T04:43:16.344Z,36.28
2019-02-11T04:45:44.910Z,40.38
2019-02-11T04:48:13.433Z,37.55
2019-02-11T04:50:41.986Z,36.63
2019-02-11T04:53:10.581Z,33.13
2019-02-11T04:55:58.480Z,24.60
2019-02-11T04:58:26.933Z,34.33
2019-02-11T05:00:55.496Z,27.73
2019-02-11T05:03:24.035Z,34.48
2019-02-11T05:05:52.582Z,26.57
2019-02-11T05:08:21.061Z,33.30
2019-02-11T05:10:50.670Z,32.00
2019-02-11T05:13:19.191Z,31.42
2019-02-11T05:15:48.802Z,32.90
2019-02-11T05:18:17.292Z,32.42
2019-02-11T05:20:45.961Z,32.90
2019-02-11T05:23:14.612Z,31.12
2019-02-11T05:25:43.130Z,27.40
2019-02-11T05:28:11.688Z,25.95
2019-02-11T05:30:40.272Z,33.48
2019-02-11T05:33:08.723Z,33.42
2019-02-11T05:35:37.209Z,21.77
2019-02-11T05:38:05.703Z,38.33
2019-02-11T05:40:34.276Z,33.65
2019-02-11T05:43:02.782Z,37.48
2019-02-11T05:45:31.310Z,29.77
2019-02-11T05:47:59.876Z,25.25
2019-02-11T05:50:28.471Z,30.85
2019-02-11T05:52:56.935Z,31.85
2019-02-11T05:55:26.483Z,26.05
2019-02-11T05:57:55.105Z,21.23
2019-02-11T06:00:23.623Z,23.02
2019-02-11T06:02:52.306Z,31.73
2019-02-11T06:05:21.556Z,18.48
2019-02-11T06:07:50.005Z,25.88
2019-02-11T06:10:18.578Z,12.30
2019-02-11T06:12:47.151Z,16.15
2019-02-11T06:15:15.549Z,20.97
2019-02-11T06:17:44.198Z,26.87
2019-02-11T06:20:12.759Z,24.30
2019-02-11T06:22:41.170Z,24.75
2019-02-11T06:25:11.160Z,17.85
2019-02-11T06:27:39.635Z,22.52
2019-02-11T06:30:13.442Z,16.60
2019-02-11T06:32:41.921Z,18.00
2019-02-11T06:35:10.414Z,20.85
2019-02-11T06:37:38.995Z,22.22
2019-02-11T06:40:09.666Z,23.50
2019-02-11T06:42:38.413Z,16.10
2019-02-11T06:45:13.300Z,15.28
2019-02-11T06:47:39.454Z,17.32
2019-02-11T06:50:13.530Z,21.93
2019-02-11T06:52:42.050Z,21.87
2019-02-11T06:55:11.688Z,18.45
2019-02-11T06:57:40.365Z,18.87
2019-02-11T07:00:13.429Z,21.35
2019-02-11T07:02:41.936Z,13.10
2019-02-11T07:05:10.518Z,21.73
2019-02-11T07:07:38.996Z,18.57
2019-02-11T07:10:10.266Z,19.32
2019-02-11T07:12:38.766Z,13.48
2019-02-11T07:15:12.422Z,17.23
2019-02-11T07:17:40.972Z,13.93
2019-02-11T07:20:10.477Z,6.03
2019-02-11T07:22:38.955Z,15.32
2019-02-11T07:25:08.729Z,10.18
2019-02-11T07:27:37.307Z,12.82
2019-02-11T07:30:09.189Z,9.88
2019-02-11T07:32:37.679Z,6.62
2019-02-11T07:35:06.266Z,11.15
2019-02-11T07:37:34.784Z,12.03
2019-02-11T07:40:04.211Z,8.20
2019-02-11T07:42:46.292Z,13.85
2019-02-11T07:45:29.703Z,15.63
2019-02-11T07:47:52.392Z,15.60
2019-02-11T07:50:20.892Z,15.25
2019-02-11T07:52:49.397Z,10.48
2019-02-11T07:55:17.862Z,7.75
2019-02-11T07:57:46.278Z,8.65
2019-02-11T08:00:14.966Z,5.78
2019-02-11T08:02:43.510Z,7.72
2019-02-11T08:05:12.024Z,9.48
2019-02-11T08:07:40.569Z,7.97
2019-02-11T08:10:09.061Z,10.70
2019-02-11T08:12:37.565Z,13.38
2019-02-11T08:15:08.766Z,9.48
2019-02-11T08:17:37.252Z,8.55
2019-02-11T08:20:07.784Z,8.20
2019-02-11T08:22:36.366Z,7.03
2019-02-11T08:25:05.434Z,7.78
2019-02-11T08:27:33.914Z,5.47
2019-02-11T08:30:02.544Z,4.95
2019-02-11T08:32:31.109Z,8.18
2019-02-11T08:34:59.556Z,6.10
2019-02-11T08:37:28.011Z,8.40
2019-02-11T08:39:56.443Z,4.33
2019-02-11T08:42:24.923Z,8.55
2019-02-11T08:45:12.878Z,8.70
2019-02-11T08:47:47.276Z,6.45
2019-02-11T08:50:15.697Z,8.40
2019-02-11T08:52:44.350Z,6.25
2019-02-11T08:55:12.922Z,7.10
2019-02-11T08:57:41.417Z,10.72
2019-02-11T09:00:11.388Z,5.47
2019-02-11T09:02:39.909Z,6.28
2019-02-11T09:05:08.401Z,4.72
2019-02-11T09:07:36.997Z,8.03
2019-02-11T09:10:10.874Z,5.97
2019-02-11T09:12:39.448Z,5.20
2019-02-11T09:15:23.872Z,7.58
2019-02-11T09:17:52.356Z,3.52
2019-02-11T09:20:20.836Z,5.00
2019-02-11T09:22:49.426Z,6.75
2019-02-11T09:25:17.921Z,6.92
2019-02-11T09:27:46.427Z,6.55
2019-02-11T09:30:16.850Z,6.05
2019-02-11T09:32:45.401Z,5.80
2019-02-11T09:35:13.926Z,5.45
2019-02-11T09:37:42.487Z,3.83
2019-02-11T09:40:13.447Z,7.15
2019-02-11T09:43:01.550Z,4.40
2019-02-11T09:45:30.047Z,4.65
2019-02-11T09:47:58.460Z,8.33
2019-02-11T09:50:40.341Z,7.95
2019-02-11T09:53:08.902Z,4.58
2019-02-11T09:55:37.506Z,3.90
2019-02-11T09:58:05.984Z,5.42
2019-02-11T10:00:34.671Z,3.80
2019-02-11T10:03:03.152Z,4.80
2019-02-11T10:05:31.671Z,2.65
2019-02-11T10:08:00.243Z,4.65
2019-02-11T10:10:28.768Z,3.87
2019-02-11T10:12:57.315Z,2.37
2019-02-11T10:15:25.882Z,3.87
2019-02-11T10:17:54.295Z,3.95
2019-02-11T10:20:22.815Z,2.72
2019-02-11T10:22:51.403Z,5.30
2019-02-11T10:25:22.485Z,4.35
2019-02-11T10:27:51.532Z,5.60
2019-02-11T10:30:20.087Z,3.35
2019-02-11T10:32:48.577Z,2.92
2019-02-11T10:35:17.147Z,3.72
2019-02-11T10:37:45.826Z,5.30
2019-02-11T10:40:14.738Z,4.75
2019-02-11T10:42:43.219Z,5.40
2019-02-11T10:45:17.521Z,2.65
2019-02-11T10:47:47.797Z,4.25
2019-02-11T10:50:21.163Z,4.30
2019-02-11T10:52:49.766Z,3.45
2019-02-11T10:55:20.549Z,3.60
2019-02-11T10:57:49.038Z,3.80
2019-02-11T11:00:25.192Z,2.25
2019-02-11T11:02:53.869Z,2.52
2019-02-11T11:05:22.487Z,3.30
2019-02-11T11:07:50.974Z,1.70
2019-02-11T11:10:28.595Z,0.57
2019-02-11T11:12:57.155Z,0.50
2019-02-11T11:15:25.661Z,0.50
2019-02-11T11:17:54.282Z,0.42
2019-02-11T11:20:22.720Z,0.50
2019-02-11T11:22:51.208Z,0.50
2019-02-11T11:25:19.927Z,0.42
2019-02-11T11:27:48.428Z,0.93
2019-02-11T11:30:38.383Z,1.20
2019-02-11T11:33:06.903Z,0.53
2019-02-11T11:35:55.036Z,0.68
2019-02-11T11:38:23.503Z,0.57
2019-02-11T11:40:52.079Z,0.53
2019-02-11T11:43:20.692Z,0.28
2019-02-11T11:45:49.230Z,0.60
2019-02-11T11:48:17.678Z,0.78
2019-02-11T11:50:46.148Z,0.47
2019-02-11T11:53:14.655Z,0.20
2019-02-11T11:55:43.123Z,0.60
2019-02-11T11:58:11.786Z,0.70
2019-02-11T12:00:40.369Z,0.50
2019-02-11T12:03:08.873Z,0.40
2019-02-11T12:05:38.524Z,0.75
2019-02-11T12:08:06.942Z,0.65
2019-02-11T12:10:35.387Z,0.50
2019-02-11T12:13:21.808Z,0.28
2019-02-11T12:15:34.119Z,0.55
2019-02-11T12:18:02.758Z,0.30
2019-02-11T12:20:33.761Z,0.23
2019-02-11T12:23:02.476Z,0.35
2019-02-11T12:25:30.901Z,0.60
2019-02-11T12:28:00.499Z,0.65
2019-02-11T12:30:30.661Z,0.47
2019-02-11T12:32:59.144Z,0.57
2019-02-11T12:35:27.773Z,0.33
2019-02-11T12:37:56.277Z,0.60
2019-02-11T12:40:24.876Z,0.60
2019-02-11T12:42:54.140Z,0.40
2019-02-11T12:45:24.525Z,0.33
2019-02-11T12:47:53.174Z,0.42
2019-02-11T12:50:21.764Z,0.30
2019-02-11T12:52:50.287Z,0.30
2019-02-11T12:55:19.403Z,0.42
2019-02-11T12:57:47.885Z,0.50
2019-02-11T13:00:20.766Z,0.30
2019-02-11T13:02:49.463Z,0.60
2019-02-11T13:05:44.259Z,0.30
2019-02-11T13:08:00.588Z,0.35
2019-02-11T13:10:29.885Z,0.85
2019-02-11T13:12:58.551Z,4.85
2019-02-11T13:15:56.489Z,0.50
2019-02-11T13:17:57.298Z,0.40
2019-02-11T13:20:25.884Z,0.68
2019-02-11T13:22:54.374Z,0.10
2019-02-11T13:25:22.884Z,0.60
2019-02-11T13:28:03.527Z,0.40
2019-02-11T13:30:32.118Z,0.28
2019-02-11T13:33:00.599Z,0.65
2019-02-11T13:35:29.151Z,0.40
2019-02-11T13:37:57.629Z,0.37
2019-02-11T13:40:26.258Z,0.60
2019-02-11T13:42:54.740Z,0.40
2019-02-11T13:45:23.547Z,0.30
2019-02-11T13:47:57.209Z,0.40
2019-02-11T13:50:24.627Z,0.20
2019-02-11T13:52:53.228Z,0.30
2019-02-11T13:55:21.978Z,0.50
2019-02-11T13:57:50.659Z,0.93
2019-02-11T14:00:22.686Z,0.40
2019-02-11T14:02:54.429Z,0.50
2019-02-11T14:05:43.965Z,0.65
2019-02-11T14:08:12.447Z,0.50
2019-02-11T14:10:40.936Z,0.35
2019-02-11T14:13:09.767Z,0.50
2019-02-11T14:15:38.255Z,0.40
2019-02-11T14:18:13.289Z,0.30
2019-02-11T14:20:39.182Z,0.57
2019-02-11T14:23:07.780Z,0.47
2019-02-11T14:25:44.384Z,0.78
2019-02-11T14:28:06.569Z,0.60
2019-02-11T14:30:35.086Z,0.40
2019-02-11T14:33:03.553Z,0.60
2019-02-11T14:35:32.077Z,0.60
2019-02-11T14:38:02.152Z,0.35
2019-02-11T14:40:30.799Z,0.30
2019-02-11T14:42:59.225Z,0.40
2019-02-11T14:45:27.722Z,0.30
2019-02-11T14:47:56.337Z,0.40
2019-02-11T14:50:24.905Z,0.62
2019-02-11T14:52:53.401Z,0.50
2019-02-11T14:55:22.007Z,0.57
2019-02-11T14:57:50.438Z,0.85
2019-02-11T15:00:20.678Z,0.70
2019-02-11T15:02:49.310Z,0.60
2019-02-11T15:05:18.589Z,0.80
2019-02-11T15:07:47.430Z,0.55
2019-02-11T15:10:16.131Z,0.72
2019-02-11T15:12:44.657Z,0.57
2019-02-11T15:15:13.930Z,0.30
2019-02-11T15:18:01.924Z,0.30
2019-02-11T15:20:30.560Z,0.50
2019-02-11T15:22:59.068Z,0.42
2019-02-11T15:25:27.608Z,0.57
2019-02-11T15:27:56.273Z,0.50
2019-02-11T15:30:24.772Z,0.55
2019-02-11T15:32:53.277Z,0.72
2019-02-11T15:35:21.765Z,0.80
2019-02-11T15:37:50.202Z,0.60
2019-02-11T15:40:21.042Z,0.53
2019-02-11T15:42:50.538Z,0.50
2019-02-11T15:45:19.091Z,0.40
2019-02-11T15:47:47.657Z,0.70
2019-02-11T15:50:17.615Z,0.50
2019-02-11T15:52:46.203Z,0.90
2019-02-11T15:55:17.649Z,2.10
2019-02-11T15:57:46.084Z,0.93
2019-02-11T16:00:16.581Z,1.40
2019-02-11T16:02:45.100Z,1.52
2019-02-11T16:05:16.695Z,0.60
2019-02-11T16:07:43.861Z,0.75
2019-02-11T16:10:21.124Z,1.07
2019-02-11T16:12:49.573Z,0.68
2019-02-11T16:15:19.304Z,0.90
2019-02-11T16:17:48.002Z,1.00
2019-02-11T16:20:16.483Z,1.00
2019-02-11T16:22:44.967Z,0.68
2019-02-11T16:25:17.356Z,0.98
2019-02-11T16:27:45.900Z,0.88
2019-02-11T16:30:17.123Z,1.15
2019-02-11T16:32:45.656Z,0.98
2019-02-11T16:35:15.909Z,1.10
2019-02-11T16:37:44.535Z,1.00
2019-02-11T16:40:19.190Z,1.27
2019-02-11T16:42:47.792Z,1.92
2019-02-11T16:45:16.482Z,2.40
2019-02-11T16:47:45.048Z,1.85
2019-02-11T16:50:13.852Z,1.15
2019-02-11T16:52:42.513Z,1.30
2019-02-11T16:55:13.951Z,1.70
2019-02-11T16:58:01.939Z,0.80
2019-02-11T17:00:30.580Z,1.05
2019-02-11T17:02:59.163Z,0.85
2019-02-11T17:05:27.812Z,1.50
2019-02-11T17:07:56.287Z,2.92
2019-02-11T17:10:24.816Z,0.80
2019-02-11T17:12:53.379Z,1.30
2019-02-11T17:15:21.810Z,1.17
2019-02-11T17:17:50.357Z,1.67
2019-02-11T17:20:18.896Z,1.70
2019-02-11T17:22:47.545Z,1.77
2019-02-11T17:25:15.952Z,1.35
2019-02-11T17:27:44.593Z,1.15
2019-02-11T17:30:25.105Z,1.30
2019-02-11T17:32:53.638Z,1.30
2019-02-11T17:35:22.153Z,1.10
2019-02-11T17:37:50.685Z,1.30
2019-02-11T17:40:20.289Z,1.50
2019-02-11T17:42:48.701Z,1.60
2019-02-11T17:45:23.226Z,1.80
2019-02-11T17:47:51.731Z,1.72
2019-02-11T17:50:20.219Z,1.92
2019-02-11T17:52:50.381Z,2.27
2019-02-11T17:55:18.985Z,1.82
2019-02-11T17:57:47.619Z,1.90
2019-02-11T18:00:32.976Z,4.35
2019-02-11T18:03:01.479Z,2.25
2019-02-11T18:05:30.122Z,1.70
2019-02-11T18:07:58.698Z,1.60
2019-02-11T18:10:27.203Z,1.90
2019-02-11T18:12:55.911Z,2.50
2019-02-11T18:15:24.653Z,2.90
2019-02-11T18:17:53.282Z,4.20
2019-02-11T18:20:22.966Z,4.25
2019-02-11T18:22:51.549Z,6.55
2019-02-11T18:25:20.134Z,9.45
2019-02-11T18:27:48.760Z,9.40
2019-02-11T18:30:17.262Z,3.00
2019-02-11T18:32:45.735Z,3.22
2019-02-11T18:35:17.042Z,1.80
2019-02-11T18:37:45.534Z,2.08
2019-02-11T18:40:26.434Z,2.90
2019-02-11T18:42:55.032Z,1.77
2019-02-11T18:45:23.437Z,2.87
2019-02-11T18:47:51.971Z,3.05
2019-02-11T18:50:20.499Z,2.37
2019-02-11T18:52:49.074Z,2.83
2019-02-11T18:55:19.914Z,2.10
2019-02-11T18:57:48.536Z,2.40
2019-02-11T19:00:21.113Z,4.22
2019-02-11T19:02:49.661Z,5.80
2019-02-11T19:05:18.301Z,7.20
2019-02-11T19:07:46.836Z,2.05
2019-02-11T19:10:17.050Z,1.92
2019-02-11T19:12:45.656Z,2.27
2019-02-11T19:15:15.575Z,2.30
2019-02-11T19:17:44.123Z,2.20
2019-02-11T19:20:19.595Z,2.90
2019-02-11T19:22:48.072Z,3.33
2019-02-11T19:25:16.556Z,2.25
2019-02-11T19:27:45.039Z,2.90
2019-02-11T19:30:22.723Z,3.22
2019-02-11T19:32:51.397Z,2.75
2019-02-11T19:35:20.024Z,9.98
2019-02-11T19:37:48.565Z,9.63
2019-02-11T19:40:18.663Z,7.45
2019-02-11T19:42:47.188Z,11.00
2019-02-11T19:45:20.511Z,11.03
2019-02-11T19:47:49.061Z,6.12
2019-02-11T19:50:18.208Z,7.37
2019-02-11T19:52:47.042Z,4.20
2019-02-11T19:55:16.527Z,3.05
2019-02-11T19:57:45.073Z,3.95
2019-02-11T20:00:20.742Z,3.60
2019-02-11T20:02:49.953Z,3.77
2019-02-11T20:05:18.675Z,3.47
2019-02-11T20:07:47.161Z,3.12
2019-02-11T20:10:18.249Z,3.65
2019-02-11T20:12:46.870Z,4.33
2019-02-11T20:15:17.897Z,4.75
2019-02-11T20:17:46.440Z,4.75
2019-02-11T20:20:20.342Z,4.62
2019-02-11T20:22:48.935Z,4.80
2019-02-11T20:25:18.475Z,4.45
2019-02-11T20:28:06.400Z,4.10
2019-02-11T20:30:35.166Z,9.03
2019-02-11T20:33:04.565Z,8.25
2019-02-11T20:35:33.111Z,6.20
2019-02-11T20:38:01.945Z,3.55
2019-02-11T20:40:30.577Z,4.40
2019-02-11T20:42:59.083Z,4.83
2019-02-11T20:45:30.654Z,4.35
2019-02-11T20:47:59.050Z,4.40
2019-02-11T20:50:27.714Z,5.90
2019-02-11T20:52:56.209Z,4.92
2019-02-11T20:55:25.013Z,3.67
2019-02-11T20:57:56.523Z,3.55
2019-02-11T21:00:26.059Z,4.85
2019-02-11T21:02:54.860Z,4.58
2019-02-11T21:05:23.834Z,2.83
2019-02-11T21:07:52.532Z,2.70
2019-02-11T21:10:23.878Z,3.02
2019-02-11T21:13:01.583Z,8.48
2019-02-11T21:15:30.262Z,5.40
2019-02-11T21:17:58.646Z,5.55
2019-02-11T21:20:33.242Z,5.22
2019-02-11T21:23:01.953Z,7.35
2019-02-11T21:25:30.423Z,5.58
2019-02-11T21:27:58.910Z,4.85
2019-02-11T21:30:28.604Z,5.92
2019-02-11T21:32:57.302Z,4.15
2019-02-11T21:35:25.754Z,3.10
2019-02-11T21:37:54.360Z,2.60
2019-02-11T21:40:22.913Z,2.90
2019-02-11T21:42:51.478Z,3.05
2019-02-11T21:45:20.078Z,2.45
2019-02-11T21:47:48.591Z,2.70
2019-02-11T21:50:26.831Z,4.30
2019-02-11T21:52:51.379Z,4.92
2019-02-11T21:55:21.513Z,4.37
2019-02-11T21:57:50.077Z,3.83
2019-02-11T22:00:24.396Z,4.30
2019-02-11T22:02:52.817Z,4.08
2019-02-11T22:05:21.369Z,4.60
2019-02-11T22:07:49.893Z,6.22
2019-02-11T22:10:20.570Z,3.20
2019-02-11T22:12:49.159Z,2.42
2019-02-11T22:15:17.639Z,2.30
2019-02-11T22:17:46.120Z,2.17
2019-02-11T22:20:21.738Z,3.00
2019-02-11T22:22:50.270Z,3.00
2019-02-11T22:25:18.721Z,3.33
2019-02-11T22:27:47.580Z,2.30
2019-02-11T22:30:18.106Z,1.82
2019-02-11T22:32:46.659Z,1.80
2019-02-11T22:35:15.307Z,1.90
2019-02-11T22:37:43.892Z,1.77
2019-02-11T22:40:14.199Z,2.15
2019-02-11T22:42:42.798Z,2.15
2019-02-11T22:45:14.110Z,2.00
2019-02-11T22:47:42.797Z,3.10
2019-02-11T22:50:12.915Z,2.52
2019-02-11T22:52:41.600Z,3.60
2019-02-11T22:55:12.055Z,4.10
2019-02-11T22:57:40.517Z,2.65
2019-02-11T23:00:15.128Z,1.67
2019-02-11T23:02:43.648Z,1.75
2019-02-11T23:05:12.073Z,2.20
2019-02-11T23:07:40.674Z,1.40
2019-02-11T23:10:09.242Z,1.40
2019-02-11T23:12:37.738Z,1.77
2019-02-11T23:15:08.712Z,2.10
2019-02-11T23:17:37.248Z,2.45
2019-02-11T23:20:07.480Z,2.80
2019-02-11T23:22:35.874Z,2.95
2019-02-11T23:25:04.774Z,3.60
2019-02-11T23:27:33.231Z,4.20
2019-02-11T23:30:01.738Z,5.12
2019-02-11T23:32:30.315Z,4.55
2019-02-11T23:34:58.732Z,4.87
2019-02-11T23:37:27.365Z,1.60
2019-02-11T23:39:55.920Z,2.65
2019-02-11T23:42:24.513Z,3.80
2019-02-11T23:44:53.247Z,1.67
2019-02-11T23:47:22.220Z,1.40
2019-02-11T23:49:50.752Z,1.55
2019-02-11T23:52:19.522Z,1.20
2019-02-11T23:54:49.080Z,1.35
2019-02-11T23:57:17.450Z,1.40
2019-02-11T23:59:45.965Z,1.30
